sensor_id;sensor_type;location;lat;lon;timestamp;P1;durP1;ratioP1;P2;durP2;ratioP2
75785;SDS011;64402;44.708;37.644;2024-03-06T00:00:49;22.50;;;9.27;;
75785;SDS011;64402;44.708;37.644;2024-03-06T00:03:15;22.95;;;9.77;;
75785;SDS011;64402;44.708;37.644;2024-03-06T00:05:41;21.17;;;10.23;;
75785;SDS011;64402;44.708;37.644;2024-03-06T00:08:07;21.92;;;11.00;;
75785;SDS011;64402;44.708;37.644;2024-03-06T00:10:34;17.65;;;9.60;;
75785;SDS011;64402;44.708;37.644;2024-03-06T00:13:01;17.77;;;8.65;;
75785;SDS011;64402;44.708;37.644;2024-03-06T00:15:28;17.40;;;7.93;;
75785;SDS011;64402;44.708;37.644;2024-03-06T00:17:54;17.30;;;8.40;;
75785;SDS011;64402;44.708;37.644;2024-03-06T00:20:20;20.33;;;9.02;;
75785;SDS011;64402;44.708;37.644;2024-03-06T00:22:47;20.88;;;9.15;;
75785;SDS011;64402;44.708;37.644;2024-03-06T00:25:13;19.08;;;8.68;;
75785;SDS011;64402;44.708;37.644;2024-03-06T00:27:39;16.85;;;8.60;;
75785;SDS011;64402;44.708;37.644;2024-03-06T00:30:06;21.35;;;8.32;;
75785;SDS011;64402;44.708;37.644;2024-03-06T00:32:32;20.77;;;9.50;;
75785;SDS011;64402;44.708;37.644;2024-03-06T00:34:59;19.85;;;9.02;;
75785;SDS011;64402;44.708;37.644;2024-03-06T00:37:25;20.98;;;9.90;;
75785;SDS011;64402;44.708;37.644;2024-03-06T00:39:51;15.95;;;8.18;;
75785;SDS011;64402;44.708;37.644;2024-03-06T00:42:17;18.63;;;9.40;;
75785;SDS011;64402;44.708;37.644;2024-03-06T00:44:43;17.70;;;8.70;;
75785;SDS011;64402;44.708;37.644;2024-03-06T00:47:10;22.52;;;9.63;;
75785;SDS011;64402;44.708;37.644;2024-03-06T00:49:36;20.25;;;9.48;;
75785;SDS011;64402;44.708;37.644;2024-03-06T00:52:03;23.55;;;8.82;;
75785;SDS011;64402;44.708;37.644;2024-03-06T00:54:30;19.05;;;8.65;;
75785;SDS011;64402;44.708;37.644;2024-03-06T00:56:56;19.20;;;8.60;;
75785;SDS011;64402;44.708;37.644;2024-03-06T00:59:23;16.20;;;8.23;;
75785;SDS011;64402;44.708;37.644;2024-03-06T01:01:49;19.85;;;9.43;;
75785;SDS011;64402;44.708;37.644;2024-03-06T01:04:15;18.50;;;9.48;;
75785;SDS011;64402;44.708;37.644;2024-03-06T01:06:41;19.92;;;10.00;;
75785;SDS011;64402;44.708;37.644;2024-03-06T01:09:08;24.98;;;11.20;;
75785;SDS011;64402;44.708;37.644;2024-03-06T01:11:34;20.60;;;10.57;;
75785;SDS011;64402;44.708;37.644;2024-03-06T01:14:00;19.75;;;9.48;;
75785;SDS011;64402;44.708;37.644;2024-03-06T01:16:27;18.70;;;8.60;;
75785;SDS011;64402;44.708;37.644;2024-03-06T01:18:55;18.42;;;9.23;;
75785;SDS011;64402;44.708;37.644;2024-03-06T01:21:21;23.42;;;10.40;;
75785;SDS011;64402;44.708;37.644;2024-03-06T01:23:47;24.88;;;9.85;;
75785;SDS011;64402;44.708;37.644;2024-03-06T01:26:13;22.52;;;10.50;;
75785;SDS011;64402;44.708;37.644;2024-03-06T01:28:39;19.98;;;10.07;;
75785;SDS011;64402;44.708;37.644;2024-03-06T01:31:06;18.52;;;9.38;;
75785;SDS011;64402;44.708;37.644;2024-03-06T01:33:32;22.23;;;10.43;;
75785;SDS011;64402;44.708;37.644;2024-03-06T01:35:58;25.05;;;10.85;;
75785;SDS011;64402;44.708;37.644;2024-03-06T01:38:24;22.40;;;10.23;;
75785;SDS011;64402;44.708;37.644;2024-03-06T01:40:51;22.45;;;11.00;;
75785;SDS011;64402;44.708;37.644;2024-03-06T01:43:20;22.50;;;11.52;;
75785;SDS011;64402;44.708;37.644;2024-03-06T01:45:48;39.40;;;17.05;;
75785;SDS011;64402;44.708;37.644;2024-03-06T01:48:16;37.38;;;17.27;;
75785;SDS011;64402;44.708;37.644;2024-03-06T01:50:45;23.38;;;12.05;;
75785;SDS011;64402;44.708;37.644;2024-03-06T01:53:13;26.52;;;10.80;;
75785;SDS011;64402;44.708;37.644;2024-03-06T01:55:42;23.83;;;10.90;;
75785;SDS011;64402;44.708;37.644;2024-03-06T01:58:08;28.55;;;11.38;;
75785;SDS011;64402;44.708;37.644;2024-03-06T02:00:35;21.13;;;10.35;;
75785;SDS011;64402;44.708;37.644;2024-03-06T02:03:01;24.85;;;10.43;;
75785;SDS011;64402;44.708;37.644;2024-03-06T02:05:28;21.83;;;11.20;;
75785;SDS011;64402;44.708;37.644;2024-03-06T02:07:57;20.98;;;10.93;;
75785;SDS011;64402;44.708;37.644;2024-03-06T02:10:28;20.60;;;10.57;;
75785;SDS011;64402;44.708;37.644;2024-03-06T02:12:54;22.13;;;10.65;;
75785;SDS011;64402;44.708;37.644;2024-03-06T02:15:20;22.85;;;11.00;;
75785;SDS011;64402;44.708;37.644;2024-03-06T02:17:47;22.08;;;10.23;;
75785;SDS011;64402;44.708;37.644;2024-03-06T02:20:14;22.35;;;10.13;;
75785;SDS011;64402;44.708;37.644;2024-03-06T02:22:41;25.10;;;9.35;;
75785;SDS011;64402;44.708;37.644;2024-03-06T02:25:07;20.30;;;9.80;;
75785;SDS011;64402;44.708;37.644;2024-03-06T02:27:34;21.50;;;9.77;;
75785;SDS011;64402;44.708;37.644;2024-03-06T02:30:00;20.90;;;10.40;;
75785;SDS011;64402;44.708;37.644;2024-03-06T02:32:27;20.38;;;9.95;;
75785;SDS011;64402;44.708;37.644;2024-03-06T02:34:53;21.63;;;9.77;;
75785;SDS011;64402;44.708;37.644;2024-03-06T02:37:19;17.77;;;8.95;;
75785;SDS011;64402;44.708;37.644;2024-03-06T02:39:46;18.90;;;9.52;;
75785;SDS011;64402;44.708;37.644;2024-03-06T02:42:12;19.42;;;8.52;;
75785;SDS011;64402;44.708;37.644;2024-03-06T02:44:38;18.95;;;9.00;;
75785;SDS011;64402;44.708;37.644;2024-03-06T02:47:04;17.08;;;8.75;;
75785;SDS011;64402;44.708;37.644;2024-03-06T02:49:30;17.10;;;8.63;;
75785;SDS011;64402;44.708;37.644;2024-03-06T02:51:57;18.02;;;8.80;;
75785;SDS011;64402;44.708;37.644;2024-03-06T02:54:29;21.67;;;9.05;;
75785;SDS011;64402;44.708;37.644;2024-03-06T02:56:55;18.33;;;8.90;;
75785;SDS011;64402;44.708;37.644;2024-03-06T02:59:24;19.08;;;8.88;;
75785;SDS011;64402;44.708;37.644;2024-03-06T03:01:50;18.58;;;8.77;;
75785;SDS011;64402;44.708;37.644;2024-03-06T03:04:16;20.48;;;8.35;;
75785;SDS011;64402;44.708;37.644;2024-03-06T03:06:42;18.45;;;8.75;;
75785;SDS011;64402;44.708;37.644;2024-03-06T03:09:09;21.88;;;9.20;;
75785;SDS011;64402;44.708;37.644;2024-03-06T03:11:37;18.77;;;9.68;;
75785;SDS011;64402;44.708;37.644;2024-03-06T03:14:03;26.33;;;12.40;;
75785;SDS011;64402;44.708;37.644;2024-03-06T03:16:30;20.05;;;9.95;;
75785;SDS011;64402;44.708;37.644;2024-03-06T03:18:58;24.48;;;10.30;;
75785;SDS011;64402;44.708;37.644;2024-03-06T03:21:24;24.65;;;11.00;;
75785;SDS011;64402;44.708;37.644;2024-03-06T03:23:50;22.10;;;12.07;;
75785;SDS011;64402;44.708;37.644;2024-03-06T03:26:16;25.67;;;11.25;;
75785;SDS011;64402;44.708;37.644;2024-03-06T03:28:42;27.95;;;11.77;;
75785;SDS011;64402;44.708;37.644;2024-03-06T03:31:09;28.52;;;10.95;;
75785;SDS011;64402;44.708;37.644;2024-03-06T03:33:38;20.35;;;11.07;;
75785;SDS011;64402;44.708;37.644;2024-03-06T03:36:05;21.25;;;10.05;;
75785;SDS011;64402;44.708;37.644;2024-03-06T03:38:33;20.80;;;10.77;;
75785;SDS011;64402;44.708;37.644;2024-03-06T03:41:07;21.38;;;10.80;;
75785;SDS011;64402;44.708;37.644;2024-03-06T03:43:41;19.40;;;9.95;;
75785;SDS011;64402;44.708;37.644;2024-03-06T03:46:08;23.95;;;10.80;;
75785;SDS011;64402;44.708;37.644;2024-03-06T03:48:35;25.25;;;10.57;;
75785;SDS011;64402;44.708;37.644;2024-03-06T03:51:02;34.17;;;11.90;;
75785;SDS011;64402;44.708;37.644;2024-03-06T03:53:35;33.72;;;11.18;;
75785;SDS011;64402;44.708;37.644;2024-03-06T03:56:02;23.75;;;11.45;;
75785;SDS011;64402;44.708;37.644;2024-03-06T03:58:28;33.25;;;11.23;;
75785;SDS011;64402;44.708;37.644;2024-03-06T04:00:55;21.23;;;10.32;;
75785;SDS011;64402;44.708;37.644;2024-03-06T04:03:21;31.60;;;11.88;;
75785;SDS011;64402;44.708;37.644;2024-03-06T04:05:48;33.30;;;15.63;;
75785;SDS011;64402;44.708;37.644;2024-03-06T04:08:14;33.00;;;14.57;;
75785;SDS011;64402;44.708;37.644;2024-03-06T04:10:43;29.33;;;14.32;;
75785;SDS011;64402;44.708;37.644;2024-03-06T04:13:15;39.50;;;15.88;;
75785;SDS011;64402;44.708;37.644;2024-03-06T04:15:42;39.42;;;12.63;;
75785;SDS011;64402;44.708;37.644;2024-03-06T04:18:08;31.75;;;13.02;;
75785;SDS011;64402;44.708;37.644;2024-03-06T04:20:34;26.58;;;12.15;;
75785;SDS011;64402;44.708;37.644;2024-03-06T04:23:00;31.42;;;12.65;;
75785;SDS011;64402;44.708;37.644;2024-03-06T04:25:27;46.05;;;14.18;;
75785;SDS011;64402;44.708;37.644;2024-03-06T04:27:53;40.63;;;14.60;;
75785;SDS011;64402;44.708;37.644;2024-03-06T04:30:19;29.73;;;11.82;;
75785;SDS011;64402;44.708;37.644;2024-03-06T04:32:46;28.88;;;11.60;;
75785;SDS011;64402;44.708;37.644;2024-03-06T04:35:12;27.90;;;11.85;;
75785;SDS011;64402;44.708;37.644;2024-03-06T04:37:39;31.05;;;12.32;;
75785;SDS011;64402;44.708;37.644;2024-03-06T04:40:05;37.15;;;12.68;;
75785;SDS011;64402;44.708;37.644;2024-03-06T04:42:34;32.22;;;15.40;;
75785;SDS011;64402;44.708;37.644;2024-03-06T04:45:09;34.40;;;13.38;;
75785;SDS011;64402;44.708;37.644;2024-03-06T04:47:38;110.13;;;13.27;;
75785;SDS011;64402;44.708;37.644;2024-03-06T04:50:07;36.88;;;12.68;;
75785;SDS011;64402;44.708;37.644;2024-03-06T04:52:35;34.47;;;12.10;;
75785;SDS011;64402;44.708;37.644;2024-03-06T04:55:05;38.08;;;12.40;;
75785;SDS011;64402;44.708;37.644;2024-03-06T04:57:34;36.25;;;12.30;;
75785;SDS011;64402;44.708;37.644;2024-03-06T05:00:00;35.40;;;13.65;;
75785;SDS011;64402;44.708;37.644;2024-03-06T05:02:31;42.70;;;13.45;;
75785;SDS011;64402;44.708;37.644;2024-03-06T05:05:00;36.75;;;13.98;;
75785;SDS011;64402;44.708;37.644;2024-03-06T05:07:29;40.10;;;13.57;;
75785;SDS011;64402;44.708;37.644;2024-03-06T05:09:56;33.72;;;13.48;;
75785;SDS011;64402;44.708;37.644;2024-03-06T05:14:50;35.40;;;13.50;;
75785;SDS011;64402;44.708;37.644;2024-03-06T05:17:20;47.47;;;14.88;;
75785;SDS011;64402;44.708;37.644;2024-03-06T05:19:46;29.52;;;14.48;;
75785;SDS011;64402;44.708;37.644;2024-03-06T05:24:41;38.25;;;14.82;;
75785;SDS011;64402;44.708;37.644;2024-03-06T05:27:09;36.17;;;15.02;;
75785;SDS011;64402;44.708;37.644;2024-03-06T05:29:38;38.33;;;15.48;;
75785;SDS011;64402;44.708;37.644;2024-03-06T05:32:05;40.20;;;14.93;;
75785;SDS011;64402;44.708;37.644;2024-03-06T05:34:34;46.42;;;16.25;;
75785;SDS011;64402;44.708;37.644;2024-03-06T05:37:01;29.33;;;15.07;;
75785;SDS011;64402;44.708;37.644;2024-03-06T05:39:32;38.47;;;16.75;;
75785;SDS011;64402;44.708;37.644;2024-03-06T05:42:05;53.90;;;15.45;;
75785;SDS011;64402;44.708;37.644;2024-03-06T05:44:32;40.25;;;16.40;;
75785;SDS011;64402;44.708;37.644;2024-03-06T05:46:59;33.20;;;15.75;;
75785;SDS011;64402;44.708;37.644;2024-03-06T05:49:27;36.58;;;15.88;;
75785;SDS011;64402;44.708;37.644;2024-03-06T05:51:54;54.08;;;15.18;;
75785;SDS011;64402;44.708;37.644;2024-03-06T05:54:21;51.25;;;15.60;;
75785;SDS011;64402;44.708;37.644;2024-03-06T05:56:50;35.85;;;15.45;;
75785;SDS011;64402;44.708;37.644;2024-03-06T05:59:17;33.95;;;14.30;;
75785;SDS011;64402;44.708;37.644;2024-03-06T06:01:44;42.72;;;15.05;;
75785;SDS011;64402;44.708;37.644;2024-03-06T06:04:11;29.40;;;14.45;;
75785;SDS011;64402;44.708;37.644;2024-03-06T06:06:39;35.72;;;15.85;;
75785;SDS011;64402;44.708;37.644;2024-03-06T06:11:39;35.08;;;13.32;;
75785;SDS011;64402;44.708;37.644;2024-03-06T06:14:05;30.67;;;13.43;;
75785;SDS011;64402;44.708;37.644;2024-03-06T06:16:35;35.35;;;13.15;;
75785;SDS011;64402;44.708;37.644;2024-03-06T06:19:06;31.52;;;12.30;;
75785;SDS011;64402;44.708;37.644;2024-03-06T06:21:32;27.00;;;12.90;;
75785;SDS011;64402;44.708;37.644;2024-03-06T06:24:04;36.25;;;13.35;;
75785;SDS011;64402;44.708;37.644;2024-03-06T06:26:30;28.00;;;13.07;;
75785;SDS011;64402;44.708;37.644;2024-03-06T06:28:57;33.50;;;13.93;;
75785;SDS011;64402;44.708;37.644;2024-03-06T06:31:24;32.30;;;12.60;;
75785;SDS011;64402;44.708;37.644;2024-03-06T06:36:18;27.60;;;11.90;;
75785;SDS011;64402;44.708;37.644;2024-03-06T06:38:46;30.35;;;11.80;;
75785;SDS011;64402;44.708;37.644;2024-03-06T06:41:13;26.02;;;11.85;;
75785;SDS011;64402;44.708;37.644;2024-03-06T06:43:40;26.58;;;11.05;;
75785;SDS011;64402;44.708;37.644;2024-03-06T06:46:07;25.83;;;11.48;;
75785;SDS011;64402;44.708;37.644;2024-03-06T06:48:34;31.05;;;10.98;;
75785;SDS011;64402;44.708;37.644;2024-03-06T06:51:00;28.77;;;11.13;;
75785;SDS011;64402;44.708;37.644;2024-03-06T06:53:30;23.52;;;10.35;;
75785;SDS011;64402;44.708;37.644;2024-03-06T06:55:57;42.78;;;11.80;;
75785;SDS011;64402;44.708;37.644;2024-03-06T06:58:24;35.30;;;11.40;;
75785;SDS011;64402;44.708;37.644;2024-03-06T07:00:52;27.48;;;10.77;;
75785;SDS011;64402;44.708;37.644;2024-03-06T07:03:19;28.08;;;11.05;;
75785;SDS011;64402;44.708;37.644;2024-03-06T07:05:47;27.80;;;10.88;;
75785;SDS011;64402;44.708;37.644;2024-03-06T07:08:13;36.28;;;10.98;;
75785;SDS011;64402;44.708;37.644;2024-03-06T07:10:39;21.50;;;9.57;;
75785;SDS011;64402;44.708;37.644;2024-03-06T07:13:06;17.73;;;9.57;;
75785;SDS011;64402;44.708;37.644;2024-03-06T07:15:32;20.88;;;9.45;;
75785;SDS011;64402;44.708;37.644;2024-03-06T07:17:58;61.80;;;17.35;;
75785;SDS011;64402;44.708;37.644;2024-03-06T07:20:24;32.92;;;11.60;;
75785;SDS011;64402;44.708;37.644;2024-03-06T07:22:51;117.38;;;31.60;;
75785;SDS011;64402;44.708;37.644;2024-03-06T07:25:17;43.60;;;13.13;;
75785;SDS011;64402;44.708;37.644;2024-03-06T07:27:43;83.07;;;21.95;;
75785;SDS011;64402;44.708;37.644;2024-03-06T07:30:09;47.03;;;14.35;;
75785;SDS011;64402;44.708;37.644;2024-03-06T07:32:36;31.35;;;9.98;;
75785;SDS011;64402;44.708;37.644;2024-03-06T07:35:03;21.40;;;9.90;;
75785;SDS011;64402;44.708;37.644;2024-03-06T07:37:30;28.77;;;9.57;;
75785;SDS011;64402;44.708;37.644;2024-03-06T07:39:56;22.05;;;9.80;;
75785;SDS011;64402;44.708;37.644;2024-03-06T07:44:50;54.78;;;17.33;;
75785;SDS011;64402;44.708;37.644;2024-03-06T07:47:16;69.72;;;19.27;;
75785;SDS011;64402;44.708;37.644;2024-03-06T07:49:42;23.25;;;10.02;;
75785;SDS011;64402;44.708;37.644;2024-03-06T07:54:36;20.02;;;8.80;;
75785;SDS011;64402;44.708;37.644;2024-03-06T07:57:05;49.08;;;10.30;;
75785;SDS011;64402;44.708;37.644;2024-03-06T07:59:31;34.20;;;14.55;;
75785;SDS011;64402;44.708;37.644;2024-03-06T08:01:57;32.47;;;10.73;;
75785;SDS011;64402;44.708;37.644;2024-03-06T08:04:23;24.88;;;10.27;;
75785;SDS011;64402;44.708;37.644;2024-03-06T08:06:50;19.15;;;8.60;;
75785;SDS011;64402;44.708;37.644;2024-03-06T08:09:16;26.95;;;9.57;;
75785;SDS011;64402;44.708;37.644;2024-03-06T08:11:43;29.30;;;9.20;;
75785;SDS011;64402;44.708;37.644;2024-03-06T08:14:09;20.77;;;9.60;;
75785;SDS011;64402;44.708;37.644;2024-03-06T08:16:35;21.85;;;8.77;;
75785;SDS011;64402;44.708;37.644;2024-03-06T08:21:29;19.25;;;9.27;;
75785;SDS011;64402;44.708;37.644;2024-03-06T08:23:55;22.15;;;8.80;;
75785;SDS011;64402;44.708;37.644;2024-03-06T08:26:21;15.85;;;8.60;;
75785;SDS011;64402;44.708;37.644;2024-03-06T08:28:48;15.35;;;8.02;;
75785;SDS011;64402;44.708;37.644;2024-03-06T08:31:14;20.67;;;8.85;;
75785;SDS011;64402;44.708;37.644;2024-03-06T08:33:41;38.38;;;9.35;;
75785;SDS011;64402;44.708;37.644;2024-03-06T08:36:07;18.42;;;7.97;;
75785;SDS011;64402;44.708;37.644;2024-03-06T08:38:33;17.00;;;8.07;;
75785;SDS011;64402;44.708;37.644;2024-03-06T08:40:59;20.00;;;9.02;;
75785;SDS011;64402;44.708;37.644;2024-03-06T08:43:26;18.55;;;8.60;;
75785;SDS011;64402;44.708;37.644;2024-03-06T08:45:52;18.92;;;7.72;;
75785;SDS011;64402;44.708;37.644;2024-03-06T08:48:20;26.55;;;8.38;;
75785;SDS011;64402;44.708;37.644;2024-03-06T08:50:47;33.60;;;9.00;;
75785;SDS011;64402;44.708;37.644;2024-03-06T08:53:13;34.20;;;10.18;;
75785;SDS011;64402;44.708;37.644;2024-03-06T08:55:41;28.83;;;12.88;;
75785;SDS011;64402;44.708;37.644;2024-03-06T08:58:07;32.53;;;16.42;;
75785;SDS011;64402;44.708;37.644;2024-03-06T09:03:00;19.83;;;10.80;;
75785;SDS011;64402;44.708;37.644;2024-03-06T09:05:26;29.77;;;11.93;;
75785;SDS011;64402;44.708;37.644;2024-03-06T09:07:52;26.00;;;11.75;;
75785;SDS011;64402;44.708;37.644;2024-03-06T09:10:19;23.23;;;12.07;;
75785;SDS011;64402;44.708;37.644;2024-03-06T09:12:45;59.15;;;13.05;;
75785;SDS011;64402;44.708;37.644;2024-03-06T09:15:11;36.13;;;12.32;;
75785;SDS011;64402;44.708;37.644;2024-03-06T09:17:38;26.25;;;12.40;;
75785;SDS011;64402;44.708;37.644;2024-03-06T09:20:07;26.67;;;11.55;;
75785;SDS011;64402;44.708;37.644;2024-03-06T09:22:37;33.17;;;10.57;;
75785;SDS011;64402;44.708;37.644;2024-03-06T09:25:07;28.75;;;12.10;;
75785;SDS011;64402;44.708;37.644;2024-03-06T09:27:34;24.92;;;12.07;;
75785;SDS011;64402;44.708;37.644;2024-03-06T09:30:00;41.95;;;12.55;;
75785;SDS011;64402;44.708;37.644;2024-03-06T09:32:26;20.98;;;10.25;;
75785;SDS011;64402;44.708;37.644;2024-03-06T09:34:52;27.73;;;10.95;;
75785;SDS011;64402;44.708;37.644;2024-03-06T09:37:19;26.45;;;9.98;;
75785;SDS011;64402;44.708;37.644;2024-03-06T09:39:45;25.15;;;10.77;;
75785;SDS011;64402;44.708;37.644;2024-03-06T09:42:14;22.20;;;12.10;;
75785;SDS011;64402;44.708;37.644;2024-03-06T09:44:41;34.38;;;12.20;;
75785;SDS011;64402;44.708;37.644;2024-03-06T09:47:07;36.70;;;13.98;;
75785;SDS011;64402;44.708;37.644;2024-03-06T09:49:43;26.55;;;12.73;;
75785;SDS011;64402;44.708;37.644;2024-03-06T09:52:09;23.33;;;11.75;;
75785;SDS011;64402;44.708;37.644;2024-03-06T09:54:36;21.80;;;10.20;;
75785;SDS011;64402;44.708;37.644;2024-03-06T09:57:05;13.48;;;6.43;;
75785;SDS011;64402;44.708;37.644;2024-03-06T09:59:31;14.25;;;6.03;;
75785;SDS011;64402;44.708;37.644;2024-03-06T10:01:58;12.52;;;6.10;;
75785;SDS011;64402;44.708;37.644;2024-03-06T10:04:28;12.25;;;5.90;;
75785;SDS011;64402;44.708;37.644;2024-03-06T10:06:55;12.20;;;6.72;;
75785;SDS011;64402;44.708;37.644;2024-03-06T10:09:23;14.32;;;6.68;;
75785;SDS011;64402;44.708;37.644;2024-03-06T10:11:50;12.88;;;6.32;;
75785;SDS011;64402;44.708;37.644;2024-03-06T10:14:19;11.85;;;6.05;;
75785;SDS011;64402;44.708;37.644;2024-03-06T10:16:52;11.75;;;6.53;;
75785;SDS011;64402;44.708;37.644;2024-03-06T10:19:23;13.75;;;7.65;;
75785;SDS011;64402;44.708;37.644;2024-03-06T10:21:51;13.57;;;6.53;;
75785;SDS011;64402;44.708;37.644;2024-03-06T10:24:18;15.52;;;6.55;;
75785;SDS011;64402;44.708;37.644;2024-03-06T10:26:56;13.85;;;6.53;;
75785;SDS011;64402;44.708;37.644;2024-03-06T10:29:24;17.42;;;6.57;;
75785;SDS011;64402;44.708;37.644;2024-03-06T10:31:53;12.68;;;7.05;;
75785;SDS011;64402;44.708;37.644;2024-03-06T10:34:21;14.52;;;6.85;;
75785;SDS011;64402;44.708;37.644;2024-03-06T10:36:55;13.43;;;6.28;;
75785;SDS011;64402;44.708;37.644;2024-03-06T10:39:22;13.20;;;6.38;;
75785;SDS011;64402;44.708;37.644;2024-03-06T10:41:51;11.05;;;5.78;;
75785;SDS011;64402;44.708;37.644;2024-03-06T10:44:23;12.52;;;6.45;;
75785;SDS011;64402;44.708;37.644;2024-03-06T10:46:55;12.27;;;6.30;;
75785;SDS011;64402;44.708;37.644;2024-03-06T10:49:24;13.18;;;6.43;;
75785;SDS011;64402;44.708;37.644;2024-03-06T10:51:59;12.88;;;6.82;;
75785;SDS011;64402;44.708;37.644;2024-03-06T10:54:28;12.82;;;6.95;;
75785;SDS011;64402;44.708;37.644;2024-03-06T10:56:55;13.95;;;6.65;;
75785;SDS011;64402;44.708;37.644;2024-03-06T10:59:26;20.05;;;7.03;;
75785;SDS011;64402;44.708;37.644;2024-03-06T11:01:54;16.95;;;7.00;;
75785;SDS011;64402;44.708;37.644;2024-03-06T11:04:26;12.45;;;6.45;;
75785;SDS011;64402;44.708;37.644;2024-03-06T11:06:59;21.65;;;7.28;;
75785;SDS011;64402;44.708;37.644;2024-03-06T11:09:28;12.82;;;6.45;;
75785;SDS011;64402;44.708;37.644;2024-03-06T11:12:00;13.52;;;6.68;;
75785;SDS011;64402;44.708;37.644;2024-03-06T11:14:30;16.40;;;7.07;;
75785;SDS011;64402;44.708;37.644;2024-03-06T11:17:04;16.27;;;7.35;;
75785;SDS011;64402;44.708;37.644;2024-03-06T11:23:32;19.42;;;7.07;;
75785;SDS011;64402;44.708;37.644;2024-03-06T11:28:21;14.85;;;7.07;;
75785;SDS011;64402;44.708;37.644;2024-03-06T11:30:55;13.77;;;7.03;;
75785;SDS011;64402;44.708;37.644;2024-03-06T11:33:34;20.38;;;8.00;;
75785;SDS011;64402;44.708;37.644;2024-03-06T11:46:56;31.98;;;17.08;;
75785;SDS011;64402;44.708;37.644;2024-03-06T11:49:34;85.13;;;48.58;;
75785;SDS011;64402;44.708;37.644;2024-03-06T11:52:03;16.25;;;7.30;;
75785;SDS011;64402;44.708;37.644;2024-03-06T11:54:31;18.63;;;9.50;;
75785;SDS011;64402;44.708;37.644;2024-03-06T11:56:59;19.90;;;6.90;;
75785;SDS011;64402;44.708;37.644;2024-03-06T11:59:36;15.32;;;6.72;;
75785;SDS011;64402;44.708;37.644;2024-03-06T12:02:06;13.65;;;5.93;;
75785;SDS011;64402;44.708;37.644;2024-03-06T12:04:33;12.52;;;5.38;;
75785;SDS011;64402;44.708;37.644;2024-03-06T12:07:01;12.55;;;5.75;;
75785;SDS011;64402;44.708;37.644;2024-03-06T12:09:34;14.68;;;5.90;;
75785;SDS011;64402;44.708;37.644;2024-03-06T12:12:02;11.75;;;5.45;;
75785;SDS011;64402;44.708;37.644;2024-03-06T12:14:29;14.13;;;5.47;;
75785;SDS011;64402;44.708;37.644;2024-03-06T12:16:57;9.65;;;5.03;;
75785;SDS011;64402;44.708;37.644;2024-03-06T12:19:33;12.73;;;5.38;;
75785;SDS011;64402;44.708;37.644;2024-03-06T12:22:03;10.65;;;5.93;;
75785;SDS011;64402;44.708;37.644;2024-03-06T12:24:35;14.63;;;5.03;;
75785;SDS011;64402;44.708;37.644;2024-03-06T12:27:03;10.57;;;4.40;;
75785;SDS011;64402;44.708;37.644;2024-03-06T12:29:31;13.55;;;4.78;;
75785;SDS011;64402;44.708;37.644;2024-03-06T12:31:58;10.13;;;4.53;;
75785;SDS011;64402;44.708;37.644;2024-03-06T12:36:52;10.57;;;4.60;;
75785;SDS011;64402;44.708;37.644;2024-03-06T12:39:18;11.52;;;4.57;;
75785;SDS011;64402;44.708;37.644;2024-03-06T12:41:49;9.85;;;4.18;;
75785;SDS011;64402;44.708;37.644;2024-03-06T12:46:42;10.65;;;4.00;;
75785;SDS011;64402;44.708;37.644;2024-03-06T12:49:08;9.15;;;4.60;;
75785;SDS011;64402;44.708;37.644;2024-03-06T12:51:35;12.27;;;4.38;;
75785;SDS011;64402;44.708;37.644;2024-03-06T12:54:01;9.30;;;4.43;;
75785;SDS011;64402;44.708;37.644;2024-03-06T12:58:55;9.90;;;4.85;;
75785;SDS011;64402;44.708;37.644;2024-03-06T13:01:21;10.43;;;5.78;;
75785;SDS011;64402;44.708;37.644;2024-03-06T13:03:47;9.27;;;4.95;;
75785;SDS011;64402;44.708;37.644;2024-03-06T13:06:14;9.60;;;4.72;;
75785;SDS011;64402;44.708;37.644;2024-03-06T13:08:41;9.98;;;4.70;;
75785;SDS011;64402;44.708;37.644;2024-03-06T13:11:07;11.75;;;4.93;;
75785;SDS011;64402;44.708;37.644;2024-03-06T13:16:01;12.18;;;5.68;;
75785;SDS011;64402;44.708;37.644;2024-03-06T13:18:27;9.82;;;4.70;;
75785;SDS011;64402;44.708;37.644;2024-03-06T13:20:53;11.60;;;6.38;;
75785;SDS011;64402;44.708;37.644;2024-03-06T13:23:20;14.45;;;6.10;;
75785;SDS011;64402;44.708;37.644;2024-03-06T13:25:47;11.27;;;5.78;;
75785;SDS011;64402;44.708;37.644;2024-03-06T13:28:14;12.93;;;5.32;;
75785;SDS011;64402;44.708;37.644;2024-03-06T13:30:40;7.90;;;3.47;;
75785;SDS011;64402;44.708;37.644;2024-03-06T13:33:06;10.35;;;3.97;;
75785;SDS011;64402;44.708;37.644;2024-03-06T13:35:33;18.50;;;9.65;;
75785;SDS011;64402;44.708;37.644;2024-03-06T13:37:59;22.33;;;10.82;;
75785;SDS011;64402;44.708;37.644;2024-03-06T13:40:25;24.58;;;11.07;;
75785;SDS011;64402;44.708;37.644;2024-03-06T13:42:52;25.40;;;12.65;;
75785;SDS011;64402;44.708;37.644;2024-03-06T13:45:19;27.23;;;14.05;;
75785;SDS011;64402;44.708;37.644;2024-03-06T13:47:45;32.10;;;15.23;;
75785;SDS011;64402;44.708;37.644;2024-03-06T13:50:12;27.95;;;15.82;;
75785;SDS011;64402;44.708;37.644;2024-03-06T13:52:40;29.77;;;15.88;;
75785;SDS011;64402;44.708;37.644;2024-03-06T13:55:07;25.77;;;15.23;;
75785;SDS011;64402;44.708;37.644;2024-03-06T13:57:34;27.95;;;15.52;;
75785;SDS011;64402;44.708;37.644;2024-03-06T14:02:32;29.20;;;15.18;;
75785;SDS011;64402;44.708;37.644;2024-03-06T14:04:58;35.05;;;18.50;;
75785;SDS011;64402;44.708;37.644;2024-03-06T14:07:25;36.10;;;18.15;;
75785;SDS011;64402;44.708;37.644;2024-03-06T14:09:51;32.25;;;17.35;;
75785;SDS011;64402;44.708;37.644;2024-03-06T14:12:17;32.28;;;17.63;;
75785;SDS011;64402;44.708;37.644;2024-03-06T14:14:44;34.85;;;18.65;;
75785;SDS011;64402;44.708;37.644;2024-03-06T14:17:13;33.85;;;18.15;;
75785;SDS011;64402;44.708;37.644;2024-03-06T14:19:39;41.33;;;17.42;;
75785;SDS011;64402;44.708;37.644;2024-03-06T14:22:06;32.42;;;16.30;;
75785;SDS011;64402;44.708;37.644;2024-03-06T14:24:34;32.17;;;16.42;;
75785;SDS011;64402;44.708;37.644;2024-03-06T14:27:05;31.20;;;16.50;;
75785;SDS011;64402;44.708;37.644;2024-03-06T14:29:31;33.72;;;16.38;;
75785;SDS011;64402;44.708;37.644;2024-03-06T14:31:58;36.88;;;17.73;;
75785;SDS011;64402;44.708;37.644;2024-03-06T14:34:24;38.97;;;18.17;;
75785;SDS011;64402;44.708;37.644;2024-03-06T14:36:51;33.17;;;17.38;;
75785;SDS011;64402;44.708;37.644;2024-03-06T14:39:20;31.48;;;17.10;;
75785;SDS011;64402;44.708;37.644;2024-03-06T14:41:51;34.80;;;20.23;;
75785;SDS011;64402;44.708;37.644;2024-03-06T14:44:18;35.10;;;20.58;;
75785;SDS011;64402;44.708;37.644;2024-03-06T14:46:46;36.55;;;18.40;;
75785;SDS011;64402;44.708;37.644;2024-03-06T14:49:12;38.55;;;19.08;;
75785;SDS011;64402;44.708;37.644;2024-03-06T14:51:41;31.65;;;17.52;;
75785;SDS011;64402;44.708;37.644;2024-03-06T14:54:09;38.53;;;16.88;;
75785;SDS011;64402;44.708;37.644;2024-03-06T14:56:35;28.65;;;17.20;;
75785;SDS011;64402;44.708;37.644;2024-03-06T14:59:01;37.30;;;15.55;;
75785;SDS011;64402;44.708;37.644;2024-03-06T15:01:28;30.42;;;16.33;;
75785;SDS011;64402;44.708;37.644;2024-03-06T15:03:54;34.40;;;16.83;;